createdAt,value
2022-09-05T00:02:31.732Z,19.42
2022-09-05T00:05:15.024Z,19.62
2022-09-05T00:08:25.626Z,19.70
2022-09-05T00:11:41.202Z,20.06
2022-09-05T00:14:34.217Z,21.20
2022-09-05T00:18:06.297Z,20.90
2022-09-05T00:24:21.928Z,20.37
2022-09-05T00:24:32.758Z,20.43
2022-09-05T00:26:50.942Z,19.66
2022-09-05T00:30:55.273Z,19.88
2022-09-05T00:32:37.698Z,20.06
2022-09-05T00:35:37.306Z,20.34
2022-09-05T00:38:18.286Z,20.14
2022-09-05T00:41:03.179Z,20.75
2022-09-05T00:43:36.812Z,20.65
2022-09-05T00:46:08.396Z,20.40
2022-09-05T00:48:58.068Z,21.02
2022-09-05T00:51:37.665Z,21.15
2022-09-05T00:54:41.206Z,21.24
2022-09-05T00:57:26.118Z,20.63
2022-09-05T01:00:19.132Z,20.49
2022-09-05T01:03:01.985Z,20.67
2022-09-05T01:05:40.813Z,20.12
2022-09-05T01:08:21.845Z,19.68
2022-09-05T01:11:26.136Z,19.37
2022-09-05T01:14:09.135Z,19.84
2022-09-05T01:17:11.211Z,19.71
2022-09-05T01:20:19.407Z,19.82
2022-09-05T01:23:14.775Z,19.39
2022-09-05T01:25:52.439Z,20.16
2022-09-05T01:29:18.098Z,19.93
2022-09-05T01:31:42.770Z,20.38
2022-09-05T01:34:44.225Z,19.94
2022-09-05T01:37:24.900Z,20.70
2022-09-05T01:40:30.835Z,21.08
2022-09-05T01:43:18.794Z,20.49
2022-09-05T01:45:50.991Z,20.50
2022-09-05T01:48:52.687Z,20.78
2022-09-05T01:51:31.524Z,20.86
2022-09-05T01:54:34.183Z,20.63
2022-09-05T01:57:29.523Z,19.48
2022-09-05T02:00:07.883Z,19.47
2022-09-05T02:02:56.945Z,19.32
2022-09-05T02:06:01.572Z,18.88
2022-09-05T02:08:50.409Z,18.53
2022-09-05T02:11:35.510Z,18.33
2022-09-05T02:14:33.498Z,18.19
2022-09-05T02:17:50.052Z,18.28
2022-09-05T02:20:33.789Z,18.49
2022-09-05T02:23:52.771Z,18.50
2022-09-05T02:26:53.821Z,19.26
2022-09-05T02:30:03.284Z,19.12
2022-09-05T02:36:24.245Z,20.10
2022-09-05T02:45:01.968Z,20.24
2022-09-05T02:45:13.055Z,19.94
2022-09-05T02:46:31.169Z,19.89
2022-09-05T02:51:08.255Z,20.41
2022-09-05T02:58:04.949Z,20.25
2022-09-05T02:59:09.010Z,20.49
2022-09-05T03:01:51.831Z,19.80
2022-09-05T03:04:33.413Z,20.36
2022-09-05T03:07:27.010Z,20.76
2022-09-05T03:10:54.623Z,20.70
2022-09-05T03:14:02.756Z,19.68
2022-09-05T03:17:06.660Z,19.25
2022-09-05T03:20:21.679Z,19.30
2022-09-05T03:23:26.007Z,18.53
2022-09-05T03:26:37.067Z,18.37
2022-09-05T03:29:18.552Z,18.30
2022-09-05T03:32:05.407Z,18.35
2022-09-05T03:34:50.408Z,18.50
2022-09-05T03:37:23.069Z,18.54
2022-09-05T03:40:15.691Z,18.61
2022-09-05T03:43:08.116Z,18.70
2022-09-05T03:45:43.720Z,18.59
2022-09-05T03:48:28.475Z,18.51
2022-09-05T03:57:05.593Z,18.54
2022-09-05T03:57:16.235Z,18.81
2022-09-05T03:57:41.445Z,18.89
2022-09-05T04:00:32.633Z,18.80
2022-09-05T04:08:15.458Z,19.80
2022-09-05T04:08:19.741Z,18.99
2022-09-05T04:09:51.654Z,18.53
2022-09-05T04:12:28.521Z,18.50
2022-09-05T04:15:15.051Z,18.48
2022-09-05T04:18:03.852Z,18.26
2022-09-05T04:20:47.705Z,18.24
2022-09-05T04:23:41.714Z,18.17
2022-09-05T04:26:20.091Z,18.09
2022-09-05T04:29:25.553Z,18.30
2022-09-05T04:32:26.719Z,18.82
2022-09-05T04:34:56.115Z,19.13
2022-09-05T04:37:37.196Z,18.44
2022-09-05T04:40:49.565Z,18.81
2022-09-05T04:43:23.492Z,18.11
2022-09-05T04:46:06.871Z,18.69
2022-09-05T04:48:43.497Z,18.47
2022-09-05T04:51:30.277Z,18.09
2022-09-05T04:54:17.113Z,18.15
2022-09-05T04:56:49.043Z,18.12
2022-09-05T05:02:27.065Z,18.03
2022-09-05T05:06:09.094Z,18.28
2022-09-05T05:06:14.658Z,18.39
2022-09-05T05:08:38.968Z,18.30
2022-09-05T05:17:07.579Z,17.91
2022-09-05T05:18:13.108Z,18.22
2022-09-05T05:18:14.520Z,18.14
2022-09-05T05:20:42.256Z,17.89
2022-09-05T05:23:19.396Z,17.63
2022-09-05T05:25:52.235Z,17.61
2022-09-05T05:28:25.946Z,18.09
2022-09-05T05:31:01.274Z,18.88
2022-09-05T05:33:34.891Z,19.01
2022-09-05T05:36:06.010Z,18.83
2022-09-05T05:38:48.413Z,18.87
2022-09-05T05:41:42.418Z,19.01
2022-09-05T05:44:18.708Z,18.87
2022-09-05T05:46:56.668Z,18.61
2022-09-05T05:49:46.409Z,18.58
2022-09-05T05:52:39.420Z,19.13
2022-09-05T05:55:52.968Z,19.11
2022-09-05T05:58:38.719Z,18.99
2022-09-05T06:01:37.634Z,19.11
2022-09-05T06:04:26.986Z,19.21
2022-09-05T06:07:19.381Z,19.40
2022-09-05T06:14:52.457Z,18.86
2022-09-05T06:15:07.079Z,19.56
2022-09-05T06:16:06.431Z,20.09
2022-09-05T06:18:51.952Z,19.97
2022-09-05T06:22:05.887Z,19.60
2022-09-05T06:24:58.517Z,19.80
2022-09-05T06:28:17.329Z,19.28
2022-09-05T06:31:31.278Z,20.01
2022-09-05T06:34:33.304Z,20.14
2022-09-05T06:37:17.249Z,20.65
2022-09-05T06:39:59.593Z,20.90
2022-09-05T06:42:57.112Z,20.71
2022-09-05T06:45:28.516Z,20.75
2022-09-05T06:48:38.278Z,21.14
2022-09-05T06:51:21.235Z,21.30
2022-09-05T06:54:26.057Z,21.35
2022-09-05T06:57:07.812Z,21.24
2022-09-05T07:00:02.502Z,21.57
2022-09-05T07:02:59.156Z,21.49
2022-09-05T07:05:55.717Z,21.45
2022-09-05T07:08:54.112Z,22.08
2022-09-05T07:11:36.371Z,22.77
2022-09-05T07:14:29.410Z,22.96
2022-09-05T07:17:04.841Z,24.07
2022-09-05T07:19:31.423Z,25.19
2022-09-05T07:22:29.432Z,25.57
2022-09-05T07:24:57.221Z,26.55
2022-09-05T07:27:44.424Z,26.92
2022-09-05T07:30:24.446Z,26.21
2022-09-05T07:32:55.976Z,26.28
2022-09-05T07:35:31.175Z,26.95
2022-09-05T07:38:18.053Z,25.57
2022-09-05T07:41:17.934Z,25.56
2022-09-05T07:43:49.448Z,26.98
2022-09-05T07:46:26.112Z,27.66
2022-09-05T07:49:00.739Z,28.16
2022-09-05T07:56:49.944Z,28.27
2022-09-05T07:57:05.167Z,26.78
2022-09-05T07:57:50.681Z,27.08
2022-09-05T08:00:26.972Z,27.04
2022-09-05T08:03:00.910Z,26.79
2022-09-05T08:05:38.971Z,26.16
2022-09-05T08:08:12.405Z,27.00
2022-09-05T08:11:22.038Z,27.58
2022-09-05T08:13:41.460Z,26.97
2022-09-05T08:16:14.236Z,27.64
2022-09-05T08:19:08.600Z,27.17
2022-09-05T08:21:46.861Z,26.29
2022-09-05T08:24:26.753Z,27.47
2022-09-05T08:27:16.167Z,27.89
2022-09-05T08:29:43.385Z,28.00
2022-09-05T08:32:22.434Z,27.45
2022-09-05T08:35:04.088Z,27.39
2022-09-05T08:37:32.461Z,27.69
2022-09-05T08:40:10.792Z,27.40
2022-09-05T08:44:05.542Z,27.54
2022-09-05T08:46:43.402Z,27.76
2022-09-05T08:49:44.106Z,27.94
2022-09-05T08:52:38.591Z,28.21
2022-09-05T08:55:34.272Z,28.09
2022-09-05T08:58:03.875Z,26.50
2022-09-05T09:00:44.151Z,26.53
2022-09-05T09:03:42.190Z,26.09
2022-09-05T09:06:27.794Z,25.80
2022-09-05T09:09:11.489Z,26.20
2022-09-05T09:11:42.375Z,26.02
2022-09-05T09:14:33.019Z,25.69
2022-09-05T09:17:03.812Z,24.99
2022-09-05T09:19:48.331Z,24.66
2022-09-05T09:22:36.781Z,24.63
2022-09-05T09:25:16.760Z,24.46
2022-09-05T09:28:46.826Z,24.76
2022-09-05T09:31:37.420Z,24.23
2022-09-05T09:34:25.423Z,23.98
2022-09-05T09:37:10.893Z,24.48
2022-09-05T09:39:40.081Z,24.29
2022-09-05T09:42:33.262Z,24.24
2022-09-05T09:45:55.781Z,23.91
2022-09-05T09:48:43.820Z,24.27
2022-09-05T09:51:35.036Z,24.39
2022-09-05T09:54:23.208Z,23.92
2022-09-05T09:57:04.934Z,24.20
2022-09-05T09:59:53.987Z,24.37
2022-09-05T10:06:45.347Z,24.53
2022-09-05T10:10:35.766Z,24.55
2022-09-05T10:10:46.527Z,24.50
2022-09-05T10:12:09.063Z,24.58
2022-09-05T10:15:07.333Z,24.89
2022-09-05T10:17:56.325Z,24.72
2022-09-05T10:20:33.043Z,24.50
2022-09-05T10:23:18.127Z,25.01
2022-09-05T10:26:22.300Z,25.46
2022-09-05T10:29:37.141Z,24.96
2022-09-05T10:35:09.966Z,25.16
2022-09-05T10:35:22.420Z,25.22
2022-09-05T10:38:10.325Z,25.27
2022-09-05T10:41:19.949Z,25.11
2022-09-05T10:43:33.643Z,25.28
2022-09-05T10:46:20.099Z,25.25
2022-09-05T10:49:08.520Z,25.10
2022-09-05T10:51:51.766Z,25.01
2022-09-05T10:54:30.660Z,25.03
2022-09-05T10:57:15.783Z,25.15
2022-09-05T11:02:20.159Z,25.40
2022-09-05T11:02:58.828Z,25.50
2022-09-05T11:05:29.243Z,25.37
2022-09-05T11:08:19.115Z,25.31
2022-09-05T11:11:26.230Z,24.97
2022-09-05T11:14:26.217Z,25.32
2022-09-05T11:17:07.622Z,24.86
2022-09-05T11:19:48.070Z,25.06
2022-09-05T11:22:23.824Z,25.06
2022-09-05T11:24:59.837Z,25.11
2022-09-05T11:27:51.558Z,25.08
2022-09-05T11:30:29.601Z,24.81
2022-09-05T11:39:45.992Z,25.15
2022-09-05T11:39:50.925Z,25.14
2022-09-05T11:40:31.184Z,24.94
2022-09-05T11:43:36.938Z,25.04
2022-09-05T11:46:33.480Z,25.05
2022-09-05T11:49:16.020Z,25.37
2022-09-05T11:52:04.528Z,24.96
2022-09-05T11:55:01.699Z,24.90
2022-09-05T11:58:02.315Z,25.45
2022-09-05T12:01:43.291Z,25.49
2022-09-05T12:04:29.038Z,25.44
2022-09-05T12:07:32.169Z,25.56
2022-09-05T12:10:46.574Z,25.62
2022-09-05T12:13:29.209Z,25.83
2022-09-05T12:16:08.567Z,26.07
2022-09-05T12:19:19.612Z,26.00
2022-09-05T12:22:23.879Z,26.30
2022-09-05T12:27:37.123Z,26.16
2022-09-05T12:29:27.740Z,26.42
2022-09-05T12:32:41.699Z,26.06
2022-09-05T12:36:07.313Z,26.53
2022-09-05T12:40:16.555Z,26.01
2022-09-05T12:41:32.427Z,26.49
2022-09-05T12:43:39.707Z,26.66
2022-09-05T12:49:06.892Z,26.72
2022-09-05T12:51:53.794Z,27.06
2022-09-05T12:54:34.697Z,27.08
2022-09-05T13:01:25.774Z,27.04
2022-09-05T13:03:05.044Z,26.96
2022-09-05T13:03:40.703Z,26.99
2022-09-05T13:06:25.449Z,26.94
2022-09-05T13:09:05.516Z,27.34
2022-09-05T13:14:47.400Z,27.32
2022-09-05T13:15:21.874Z,27.41
2022-09-05T13:18:08.434Z,27.65
2022-09-05T13:20:47.203Z,27.84
2022-09-05T13:23:50.568Z,27.18
2022-09-05T13:26:33.346Z,27.23
2022-09-05T13:29:19.745Z,27.28
2022-09-05T13:37:59.459Z,27.24
2022-09-05T13:38:04.296Z,26.80
2022-09-05T13:38:04.874Z,27.07
2022-09-05T13:40:41.909Z,27.34
2022-09-05T13:43:08.593Z,27.29
2022-09-05T13:45:49.006Z,27.76
2022-09-05T13:48:22.302Z,27.61
2022-09-05T13:50:50.949Z,27.40
2022-09-05T13:53:36.878Z,27.45
2022-09-05T13:56:25.582Z,27.35
2022-09-05T13:59:07.713Z,27.52
2022-09-05T14:02:25.066Z,27.53
2022-09-05T14:05:20.870Z,27.13
2022-09-05T14:08:09.279Z,27.33
2022-09-05T14:11:02.063Z,27.22
2022-09-05T14:13:59.145Z,27.34
2022-09-05T14:16:43.470Z,27.37
2022-09-05T14:19:24.203Z,27.45
2022-09-05T14:21:51.280Z,27.37
2022-09-05T14:24:27.965Z,27.40
2022-09-05T14:26:58.250Z,27.34
2022-09-05T14:29:34.737Z,27.61
2022-09-05T14:37:39.990Z,27.74
2022-09-05T14:38:01.386Z,27.74
2022-09-05T14:38:09.385Z,27.37
2022-09-05T14:41:08.269Z,27.53
2022-09-05T14:43:59.285Z,27.60
2022-09-05T14:47:32.486Z,27.82
2022-09-05T14:50:21.194Z,27.69
2022-09-05T14:57:23.680Z,27.87
2022-09-05T15:02:44.276Z,27.79
2022-09-05T15:02:52.913Z,27.88
2022-09-05T15:05:11.442Z,27.81
2022-09-05T15:07:43.241Z,27.71
2022-09-05T15:12:18.810Z,27.42
2022-09-05T15:13:13.984Z,27.59
2022-09-05T15:15:56.175Z,27.67
2022-09-05T15:18:49.652Z,27.79
2022-09-05T15:21:33.755Z,27.79
2022-09-05T15:24:04.333Z,27.86
2022-09-05T15:26:54.164Z,27.20
2022-09-05T15:29:25.588Z,27.51
2022-09-05T15:32:09.335Z,27.51
2022-09-05T15:34:38.403Z,27.62
2022-09-05T15:37:22.600Z,27.40
2022-09-05T15:40:10.754Z,27.86
2022-09-05T15:43:15.963Z,27.50
2022-09-05T15:45:42.797Z,27.77
2022-09-05T15:48:12.547Z,27.99
2022-09-05T15:50:49.902Z,27.78
2022-09-05T15:53:42.957Z,27.59
2022-09-05T15:56:09.603Z,27.72
2022-09-05T15:58:53.259Z,27.74
2022-09-05T16:01:59.998Z,27.90
2022-09-05T16:08:32.802Z,27.79
2022-09-05T16:10:38.258Z,27.98
2022-09-05T16:10:46.460Z,27.79
2022-09-05T16:13:12.434Z,27.96
2022-09-05T16:18:14.099Z,27.86
2022-09-05T16:23:23.852Z,27.41
2022-09-05T16:23:23.939Z,27.51
2022-09-05T16:24:58.509Z,27.89
2022-09-05T16:27:35.310Z,27.98
2022-09-05T16:30:15.574Z,28.01
2022-09-05T16:32:51.235Z,27.86
2022-09-05T16:35:26.300Z,28.16
2022-09-05T16:38:06.044Z,27.76
2022-09-05T16:40:47.441Z,27.89
2022-09-05T16:43:46.412Z,27.74
2022-09-05T16:46:30.761Z,27.70
2022-09-05T16:49:41.500Z,27.68
2022-09-05T16:52:17.198Z,27.64
2022-09-05T16:55:29.478Z,27.23
2022-09-05T16:58:37.211Z,27.15
2022-09-05T17:01:33.266Z,27.36
2022-09-05T17:04:22.486Z,27.50
2022-09-05T17:06:57.482Z,27.26
2022-09-05T17:09:41.301Z,27.09
2022-09-05T17:12:18.054Z,27.25
2022-09-05T17:14:55.893Z,27.37
2022-09-05T17:18:18.504Z,26.67
2022-09-05T17:20:22.172Z,25.87
2022-09-05T17:28:34.669Z,25.84
2022-09-05T17:29:29.819Z,25.88
2022-09-05T17:29:30.255Z,26.07
2022-09-05T17:32:00.695Z,26.39
2022-09-05T17:34:45.487Z,26.45
2022-09-05T17:37:27.299Z,26.52
2022-09-05T17:40:13.858Z,26.39
2022-09-05T17:42:54.784Z,25.30
2022-09-05T17:45:46.471Z,25.77
2022-09-05T17:48:14.781Z,25.24
2022-09-05T17:50:48.364Z,25.16
2022-09-05T17:53:25.880Z,24.85
2022-09-05T17:55:54.000Z,24.92
2022-09-05T17:58:25.314Z,25.54
2022-09-05T18:01:16.608Z,25.21
2022-09-05T18:04:08.588Z,25.59
2022-09-05T18:06:52.764Z,25.38
2022-09-05T18:09:39.727Z,25.39
2022-09-05T18:13:11.621Z,26.09
2022-09-05T18:15:38.741Z,25.89
2022-09-05T18:19:03.688Z,25.36
2022-09-05T18:21:21.693Z,24.95
2022-09-05T18:24:03.066Z,24.98
2022-09-05T18:26:42.950Z,24.83
2022-09-05T18:29:57.492Z,24.24
2022-09-05T18:32:40.718Z,24.91
2022-09-05T18:35:37.571Z,25.18
2022-09-05T18:38:05.308Z,25.08
2022-09-05T18:41:07.278Z,25.30
2022-09-05T18:43:40.191Z,24.82
2022-09-05T18:46:22.525Z,25.34
2022-09-05T18:50:12.532Z,25.40
2022-09-05T18:52:41.064Z,24.67
2022-09-05T18:55:30.116Z,24.17
2022-09-05T18:58:26.339Z,24.04
2022-09-05T19:00:55.998Z,23.78
2022-09-05T19:03:33.288Z,23.70
2022-09-05T19:06:34.759Z,24.47
2022-09-05T19:09:02.642Z,24.87
2022-09-05T19:11:35.624Z,24.97
2022-09-05T19:14:26.186Z,24.73
2022-09-05T19:17:08.626Z,24.75
2022-09-05T19:20:32.223Z,24.59
2022-09-05T19:23:13.128Z,24.46
2022-09-05T19:25:46.502Z,23.60
2022-09-05T19:33:07.666Z,24.05
2022-09-05T19:37:02.248Z,23.63
2022-09-05T19:37:03.120Z,23.90
2022-09-05T19:37:38.288Z,23.79
2022-09-05T19:47:10.952Z,24.28
2022-09-05T19:47:40.243Z,23.77
2022-09-05T19:47:46.937Z,24.41
2022-09-05T19:48:25.393Z,24.21
2022-09-05T19:51:16.321Z,24.30
2022-09-05T19:54:03.717Z,24.42
2022-09-05T19:56:45.862Z,24.64
2022-09-05T19:59:19.243Z,24.76
2022-09-05T20:01:47.455Z,24.72
2022-09-05T20:04:18.033Z,24.58
2022-09-05T20:06:46.237Z,24.54
2022-09-05T20:09:22.544Z,24.55
2022-09-05T20:11:57.873Z,24.92
2022-09-05T20:14:33.458Z,24.69
2022-09-05T20:17:21.321Z,24.89
2022-09-05T20:19:48.229Z,24.15
2022-09-05T20:22:47.411Z,24.22
2022-09-05T20:25:19.759Z,24.51
2022-09-05T20:28:07.539Z,23.80
2022-09-05T20:30:42.852Z,24.35
2022-09-05T20:33:48.116Z,24.41
2022-09-05T20:43:09.786Z,23.93
2022-09-05T20:43:20.998Z,23.92
2022-09-05T20:43:42.515Z,24.29
2022-09-05T20:46:08.693Z,24.14
2022-09-05T20:54:10.490Z,24.00
2022-09-05T20:54:23.435Z,24.67
2022-09-05T20:54:34.856Z,24.07
2022-09-05T20:57:18.591Z,23.50
2022-09-05T20:59:46.926Z,23.44
2022-09-05T21:02:24.834Z,23.35
2022-09-05T21:05:20.987Z,23.80
2022-09-05T21:07:48.670Z,23.50
2022-09-05T21:10:27.301Z,23.82
2022-09-05T21:12:57.923Z,23.70
2022-09-05T21:15:52.163Z,23.52
2022-09-05T21:18:33.416Z,23.69
2022-09-05T21:21:27.987Z,23.23
2022-09-05T21:24:18.212Z,23.27
2022-09-05T21:26:49.933Z,23.64
2022-09-05T21:29:32.246Z,23.50
2022-09-05T21:32:02.260Z,22.83
2022-09-05T21:34:45.041Z,22.40
2022-09-05T21:37:17.482Z,22.54
2022-09-05T21:40:00.355Z,23.49
2022-09-05T21:45:47.563Z,23.36
2022-09-05T21:47:49.352Z,23.52
2022-09-05T21:48:04.551Z,22.89
2022-09-05T21:50:52.238Z,22.39
2022-09-05T21:57:00.363Z,22.50
2022-09-05T21:59:16.303Z,23.25
2022-09-05T21:59:24.822Z,22.47
2022-09-05T22:02:01.817Z,22.06
2022-09-05T22:04:28.569Z,22.24
2022-09-05T22:06:57.887Z,22.81
2022-09-05T22:09:27.797Z,22.67
2022-09-05T22:11:55.124Z,22.15
2022-09-05T22:14:24.131Z,22.36
2022-09-05T22:16:55.826Z,22.68
2022-09-05T22:19:25.289Z,22.75
2022-09-05T22:21:57.456Z,22.27
2022-09-05T22:24:29.420Z,22.18
2022-09-05T22:27:11.425Z,22.36
2022-09-05T22:29:40.121Z,22.47
2022-09-05T22:32:07.815Z,22.31
2022-09-05T22:34:35.797Z,22.36
2022-09-05T22:37:02.435Z,22.71
2022-09-05T22:39:37.747Z,22.56
2022-09-05T22:42:13.614Z,22.30
2022-09-05T22:44:41.780Z,21.94
2022-09-05T22:47:10.544Z,22.36
2022-09-05T22:49:37.913Z,22.21
2022-09-05T22:52:06.582Z,22.74
2022-09-05T22:54:37.117Z,22.88
2022-09-05T22:57:04.950Z,23.25
2022-09-05T22:59:31.780Z,23.03
2022-09-05T23:01:58.536Z,22.23
2022-09-05T23:04:25.767Z,22.72
2022-09-05T23:06:52.613Z,23.09
2022-09-05T23:09:19.297Z,23.27
2022-09-05T23:11:45.959Z,22.24
2022-09-05T23:14:12.588Z,22.43
2022-09-05T23:16:39.295Z,22.93
2022-09-05T23:19:05.978Z,22.77
2022-09-05T23:21:34.194Z,22.70
2022-09-05T23:24:00.827Z,22.60
2022-09-05T23:26:27.563Z,22.66
2022-09-05T23:28:54.164Z,22.53
2022-09-05T23:31:20.982Z,21.99
2022-09-05T23:33:48.347Z,21.85
2022-09-05T23:36:15.141Z,21.73
2022-09-05T23:38:43.087Z,21.58
2022-09-05T23:41:12.955Z,21.71
2022-09-05T23:43:39.977Z,22.51
2022-09-05T23:46:07.104Z,21.91
2022-09-05T23:48:33.936Z,21.69
2022-09-05T23:51:12.019Z,21.52
2022-09-05T23:53:39.651Z,21.50
2022-09-05T23:56:09.081Z,21.94
2022-09-05T23:58:36.921Z,21.67
